Time;durP1;ratioP1;P1;durP2;ratioP2;P2;SDS_P1;SDS_P2;PMS_P1;PMS_P2;Temp;Humidity;BMP_temperature;BMP_pressure;BME280_temperature;BME280_humidity;BME280_pressure;Samples;Min_cycle;Max_cycle;Signal;HPM_P1;HPM_P2
2021/05/06 00:02:17;;;;;;;6.25;1.80;;;;;;;;;;5026855;28;20086;-78
2021/05/06 00:32:09;;;;;;;7.00;2.33;;;;;;;;;;5023948;28;20071;-77
2021/05/06 00:34:36;;;;;;;9.43;2.25;;;;;;;;;;5016830;28;20033;-76
2021/05/06 00:37:02;;;;;;;6.38;2.20;;;;;;;;;;5024411;28;20769;-77
2021/05/06 00:39:43;;;;;;;7.40;2.28;;;;;;;;;;5018912;28;20103;-78
2021/05/06 01:05:55;;;;;;;6.03;1.90;;;;;;;;;;5020601;28;20065;-77
2021/05/06 01:08:29;;;;;;;6.78;2.13;;;;;;;;;;5031436;28;20052;-78
2021/05/06 01:13:32;;;;;;;6.85;2.08;;;;;;;;;;5026749;28;20083;-77
2021/05/06 01:15:58;;;;;;;5.88;1.73;;;;;;;;;;5022800;28;20043;-79
2021/05/06 01:18:25;;;;;;;5.75;1.63;;;;;;;;;;5033105;28;20553;-76
2021/05/06 01:20:56;;;;;;;7.75;2.20;;;;;;;;;;5019902;28;20025;-77
2021/05/06 01:23:26;;;;;;;7.75;2.08;;;;;;;;;;5029633;28;20475;-77
2021/05/06 01:25:59;;;;;;;7.85;1.98;;;;;;;;;;5023700;28;20033;-76
2021/05/06 01:28:29;;;;;;;7.93;2.10;;;;;;;;;;5032753;28;20087;-77
2021/05/06 01:31:03;;;;;;;7.47;1.90;;;;;;;;;;5023149;28;20573;-77
2021/05/06 01:36:27;;;;;;;7.28;2.13;;;;;;;;;;5026593;28;20845;-78
2021/05/06 01:59:31;;;;;;;5.57;1.60;;;;;;;;;;5032283;28;20512;-80
2021/05/06 02:01:57;;;;;;;6.70;2.05;;;;;;;;;;5017969;28;20094;-80
2021/05/06 02:04:23;;;;;;;5.60;1.80;;;;;;;;;;5024317;28;20111;-80
2021/05/06 02:06:49;;;;;;;;;;;;;;;;;;5024161;28;20033;-79
2021/05/06 02:09:15;;;;;;;8.85;3.40;;;;;;;;;;5027365;28;19916;-78
2021/05/06 02:11:41;;;;;;;;;;;;;;;;;;5028071;28;20041;-79
2021/05/06 02:14:09;;;;;;;39.45;28.45;;;;;;;;;;5020840;28;19987;-79
2021/05/06 02:16:39;;;;;;;28.45;18.77;;;;;;;;;;5029388;28;20005;-78
2021/05/06 02:19:06;;;;;;;11.70;5.93;;;;;;;;;;5021029;28;20029;-77
2021/05/06 02:21:32;;;;;;;7.90;2.40;;;;;;;;;;5025453;28;20033;-77
2021/05/06 02:23:58;;;;;;;8.23;2.05;;;;;;;;;;5020001;28;20078;-77
2021/05/06 02:26:24;;;;;;;;;;;;;;;;;;5026820;28;20048;-78
2021/05/06 02:28:51;;;;;;;6.68;1.75;;;;;;;;;;5030739;28;19979;-78
2021/05/06 02:31:17;;;;;;;5.72;1.50;;;;;;;;;;5033266;28;20024;-78
2021/05/06 02:33:43;;;;;;;;;;;;;;;;;;5019727;28;20024;-78
2021/05/06 02:36:10;;;;;;;6.45;1.60;;;;;;;;;;5021703;28;19912;-78
2021/05/06 02:38:36;;;;;;;;;;;;;;;;;;5022157;28;20108;-78
2021/05/06 02:41:02;;;;;;;4.25;1.30;;;;;;;;;;5022265;28;19913;-78
2021/05/06 02:43:28;;;;;;;6.07;1.60;;;;;;;;;;5018905;28;23395;-78
2021/05/06 02:45:54;;;;;;;5.72;1.40;;;;;;;;;;5016893;28;20040;-78
2021/05/06 02:48:21;;;;;;;5.70;1.42;;;;;;;;;;5020541;28;20028;-79
2021/05/06 02:50:53;;;;;;;7.22;1.38;;;;;;;;;;5023153;28;20020;-79
2021/05/06 02:53:23;;;;;;;7.65;1.60;;;;;;;;;;5025900;28;20037;-78
2021/05/06 03:03:51;;;;;;;6.32;1.48;;;;;;;;;;5014924;28;20409;-80
2021/05/06 03:06:24;;;;;;;;;;;;;;;;;;5018794;28;20594;-81
2021/05/06 03:08:59;;;;;;;5.53;1.58;;;;;;;;;;5027604;28;19912;-81
2021/05/06 03:11:42;;;;;;;6.90;1.52;;;;;;;;;;5023362;28;20159;-78
2021/05/06 03:24:58;;;;;;;5.43;1.35;;;;;;;;;;5024015;28;20067;-79
2021/05/06 03:27:28;;;;;;;6.75;1.55;;;;;;;;;;5020285;28;20036;-80
2021/05/06 03:30:26;;;;;;;5.25;1.50;;;;;;;;;;5024857;28;20152;-80
2021/05/06 03:32:58;;;;;;;7.78;1.50;;;;;;;;;;5020830;28;20426;-80
2021/05/06 04:18:06;;;;;;;10.27;4.60;;;;;;;;;;5021102;28;20025;-79
2021/05/06 04:26:10;;;;;;;7.20;1.75;;;;;;;;;;5014646;28;20041;-79
2021/05/06 04:37:18;;;;;;;8.52;2.20;;;;;;;;;;5019124;28;20051;-80
2021/05/06 04:39:36;;;;;;;11.43;2.60;;;;;;;;;;5025821;28;20041;-78
2021/05/06 04:55:32;;;;;;;6.53;1.80;;;;;;;;;;5024994;28;20482;-79
2021/05/06 05:06:02;;;;;;;;;;;;;;;;;;5030720;28;20786;-79
2021/05/06 05:08:34;;;;;;;8.90;2.45;;;;;;;;;;5029834;28;19916;-79
2021/05/06 05:23:51;;;;;;;8.93;3.03;;;;;;;;;;5027767;28;20103;-79
2021/05/06 05:26:18;;;;;;;8.20;2.80;;;;;;;;;;5014926;28;20078;-79
2021/05/06 05:28:44;;;;;;;;;;;;;;;;;;5009532;28;20108;-79
2021/05/06 05:31:10;;;;;;;15.30;3.47;;;;;;;;;;5014896;28;19959;-79
2021/05/06 05:36:26;;;;;;;11.30;3.13;;;;;;;;;;4972756;28;20952;-80
2021/05/06 05:38:59;;;;;;;10.23;2.90;;;;;;;;;;4977739;28;20089;-80
2021/05/06 05:56:52;;;;;;;9.15;2.10;;;;;;;;;;4976128;28;20462;-79
2021/05/06 05:59:18;;;;;;;8.80;1.95;;;;;;;;;;4965279;28;20744;-81
2021/05/06 06:01:44;;;;;;;12.60;2.72;;;;;;;;;;4961087;28;20534;-79
2021/05/06 06:04:10;;;;;;;;;;;;;;;;;;4978058;28;20030;-79
2021/05/06 06:06:37;;;;;;;13.13;3.00;;;;;;;;;;4973134;28;19984;-80
2021/05/06 06:09:03;;;;;;;;;;;;;;;;;;4964891;28;20581;-80
2021/05/06 06:11:35;;;;;;;12.50;3.63;;;;;;;;;;4978032;28;19928;-79
2021/05/06 06:14:06;;;;;;;9.48;2.40;;;;;;;;;;5011576;28;20056;-80
2021/05/06 06:16:35;;;;;;;9.95;2.58;;;;;;;;;;5027393;28;20135;-80
2021/05/06 06:19:02;;;;;;;10.32;2.40;;;;;;;;;;5024318;28;20438;-81
2021/05/06 06:24:01;;;;;;;11.98;3.10;;;;;;;;;;5024722;28;20087;-79
2021/05/06 06:26:27;;;;;;;;;;;;;;;;;;5024753;28;20081;-79
2021/05/06 06:28:57;;;;;;;11.57;3.63;;;;;;;;;;5021057;28;19928;-80
2021/05/06 06:31:46;;;;;;;10.85;3.30;;;;;;;;;;5020153;28;20025;-79
2021/05/06 06:34:09;;;;;;;15.27;3.47;;;;;;;;;;5020153;28;20568;-79
2021/05/06 06:36:35;;;;;;;;;;;;;;;;;;5019678;28;20339;-80
2021/05/06 06:39:02;;;;;;;15.50;3.30;;;;;;;;;;5023240;28;19996;-81
2021/05/06 06:41:29;;;;;;;12.63;3.22;;;;;;;;;;5026088;28;20033;-80
2021/05/06 06:43:58;;;;;;;;;;;;;;;;;;5022418;28;20039;-82
2021/05/06 06:46:25;;;;;;;20.52;3.63;;;;;;;;;;5023923;28;19917;-79
2021/05/06 06:48:51;;;;;;;29.17;4.22;;;;;;;;;;5021862;28;20032;-79
2021/05/06 06:51:17;;;;;;;25.42;3.47;;;;;;;;;;5020399;28;20565;-80
2021/05/06 06:53:43;;;;;;;;;;;;;;;;;;5016405;28;20047;-79
2021/05/06 06:56:10;;;;;;;18.63;3.03;;;;;;;;;;5018829;28;19959;-79
2021/05/06 06:58:39;;;;;;;13.32;2.65;;;;;;;;;;5017158;28;20051;-79
2021/05/06 07:01:07;;;;;;;15.50;2.45;;;;;;;;;;5023059;28;20388;-79
2021/05/06 07:03:34;;;;;;;7.32;1.67;;;;;;;;;;5023758;28;20488;-80
2021/05/06 07:06:00;;;;;;;9.68;2.00;;;;;;;;;;5020630;28;20025;-80
2021/05/06 07:08:29;;;;;;;;;;;;;;;;;;5025017;28;20052;-79
2021/05/06 07:10:56;;;;;;;7.63;1.75;;;;;;;;;;5016381;28;19913;-79
2021/05/06 07:13:23;;;;;;;11.93;1.80;;;;;;;;;;5019109;28;20224;-79
2021/05/06 07:15:50;;;;;;;10.45;1.75;;;;;;;;;;5019449;28;20020;-79
2021/05/06 07:18:17;;;;;;;8.23;1.73;;;;;;;;;;5022239;28;20026;-79
2021/05/06 07:20:44;;;;;;;8.93;2.38;;;;;;;;;;5020329;28;20250;-80
2021/05/06 07:23:11;;;;;;;13.07;2.10;;;;;;;;;;5021738;28;20914;-79
2021/05/06 07:25:38;;;;;;;11.70;1.73;;;;;;;;;;5018118;28;20026;-79
2021/05/06 07:28:04;;;;;;;;;;;;;;;;;;5027678;28;20037;-79
2021/05/06 07:30:32;;;;;;;8.93;1.85;;;;;;;;;;5026769;28;20782;-81
2021/05/06 07:32:58;;;;;;;8.13;1.52;;;;;;;;;;5021111;28;20029;-79
2021/05/06 07:35:24;;;;;;;8.07;1.58;;;;;;;;;;5026737;28;20812;-79
2021/05/06 07:37:50;;;;;;;;;;;;;;;;;;5018063;28;20012;-79
2021/05/06 07:40:17;;;;;;;9.65;1.70;;;;;;;;;;5023930;28;20367;-80
2021/05/06 07:42:43;;;;;;;9.38;1.85;;;;;;;;;;5026308;28;20163;-79
2021/05/06 07:45:09;;;;;;;;;;;;;;;;;;5013617;28;20017;-79
2021/05/06 07:47:36;;;;;;;6.95;1.33;;;;;;;;;;5016878;28;19913;-79
2021/05/06 07:50:03;;;;;;;7.35;1.70;;;;;;;;;;5027107;28;20025;-80
2021/05/06 07:52:30;;;;;;;8.00;1.55;;;;;;;;;;5022703;28;20029;-79
2021/05/06 07:54:56;;;;;;;8.32;1.50;;;;;;;;;;5026800;28;20041;-79
2021/05/06 07:57:23;;;;;;;5.57;1.48;;;;;;;;;;5021975;28;20028;-81
2021/05/06 07:59:49;;;;;;;5.63;1.48;;;;;;;;;;5012405;28;20321;-79
2021/05/06 08:02:16;;;;;;;6.55;1.42;;;;;;;;;;5020814;28;20489;-79
2021/05/06 08:04:42;;;;;;;7.13;1.80;;;;;;;;;;5013258;28;20022;-79
2021/05/06 08:07:09;;;;;;;5.35;1.40;;;;;;;;;;5019400;28;20060;-78
2021/05/06 08:09:35;;;;;;;7.57;1.30;;;;;;;;;;5019329;28;20098;-80
2021/05/06 08:12:02;;;;;;;4.85;1.35;;;;;;;;;;5020126;28;20082;-81
2021/05/06 08:14:29;;;;;;;10.07;1.38;;;;;;;;;;5027290;28;20435;-79
2021/05/06 08:16:55;;;;;;;7.50;1.33;;;;;;;;;;5014206;28;20028;-82
2021/05/06 08:19:21;;;;;;;5.63;1.50;;;;;;;;;;5019821;28;20116;-79
2021/05/06 08:21:48;;;;;;;7.55;1.30;;;;;;;;;;5015652;28;20033;-79
2021/05/06 08:24:17;;;;;;;4.90;1.20;;;;;;;;;;5019436;28;20557;-79
2021/05/06 08:26:43;;;;;;;6.68;1.33;;;;;;;;;;5016230;28;20087;-81
2021/05/06 08:29:09;;;;;;;8.93;1.50;;;;;;;;;;5017449;28;20455;-80
2021/05/06 08:31:35;;;;;;;7.85;1.52;;;;;;;;;;5022260;28;20052;-80
2021/05/06 08:34:02;;;;;;;7.78;1.45;;;;;;;;;;5023458;28;20032;-81
2021/05/06 08:36:28;;;;;;;5.82;1.33;;;;;;;;;;5024804;28;20033;-80
2021/05/06 08:38:54;;;;;;;9.25;1.55;;;;;;;;;;5018844;28;20032;-79
2021/05/06 08:41:21;;;;;;;8.13;1.40;;;;;;;;;;5020756;28;20044;-79
2021/05/06 08:43:57;;;;;;;8.13;1.13;;;;;;;;;;5019251;28;20033;-80
2021/05/06 08:46:32;;;;;;;6.07;1.30;;;;;;;;;;5023150;28;20155;-79
2021/05/06 08:48:58;;;;;;;4.50;1.20;;;;;;;;;;5022586;28;20037;-81
2021/05/06 08:51:25;;;;;;;7.63;1.30;;;;;;;;;;5024190;28;20082;-80
2021/05/06 08:53:51;;;;;;;7.03;1.50;;;;;;;;;;5018291;28;20211;-80
2021/05/06 08:56:18;;;;;;;9.10;1.40;;;;;;;;;;5023635;28;20029;-81
2021/05/06 08:58:44;;;;;;;7.50;1.52;;;;;;;;;;5021101;28;20033;-80
2021/05/06 09:01:10;;;;;;;7.68;1.83;;;;;;;;;;5020308;28;20570;-80
2021/05/06 09:03:36;;;;;;;5.53;1.05;;;;;;;;;;5021591;28;20071;-81
2021/05/06 09:06:19;;;;;;;7.70;1.48;;;;;;;;;;5031800;28;20056;-81
2021/05/06 09:08:46;;;;;;;7.30;1.50;;;;;;;;;;5026241;28;20043;-79
2021/05/06 09:11:13;;;;;;;5.22;1.40;;;;;;;;;;5029962;28;20033;-80
2021/05/06 09:13:40;;;;;;;5.95;1.05;;;;;;;;;;5031581;28;20028;-80
2021/05/06 09:16:06;;;;;;;6.35;1.35;;;;;;;;;;5034288;28;20120;-80
2021/05/06 09:18:37;;;;;;;6.82;1.35;;;;;;;;;;5030793;28;20112;-79
2021/05/06 09:21:04;;;;;;;7.20;1.20;;;;;;;;;;5031314;28;20035;-80
2021/05/06 09:23:30;;;;;;;7.43;1.35;;;;;;;;;;5037781;28;20031;-80
2021/05/06 09:26:01;;;;;;;8.65;1.30;;;;;;;;;;5027007;28;20539;-80
2021/05/06 09:28:27;;;;;;;8.07;1.52;;;;;;;;;;5033342;28;20081;-81
2021/05/06 09:30:58;;;;;;;7.45;1.25;;;;;;;;;;5023288;28;20020;-81
2021/05/06 09:33:48;;;;;;;6.75;1.40;;;;;;;;;;5022804;28;20362;-80
2021/05/06 09:36:18;;;;;;;5.00;1.27;;;;;;;;;;5022752;28;20053;-80
2021/05/06 09:38:49;;;;;;;5.20;1.00;;;;;;;;;;5027433;28;20021;-81
2021/05/06 09:41:18;;;;;;;7.07;1.70;;;;;;;;;;5029416;28;20029;-81
2021/05/06 09:43:45;;;;;;;8.43;1.83;;;;;;;;;;5024054;28;20033;-81
2021/05/06 09:46:31;;;;;;;6.82;1.38;;;;;;;;;;5028194;28;20843;-80
2021/05/06 09:49:01;;;;;;;5.63;1.25;;;;;;;;;;5021955;28;20689;-81
2021/05/06 09:51:42;;;;;;;9.23;1.55;;;;;;;;;;5025877;28;20029;-80
2021/05/06 09:54:17;;;;;;;5.22;1.30;;;;;;;;;;5023607;28;20400;-81
2021/05/06 09:56:44;;;;;;;6.80;1.35;;;;;;;;;;5018164;28;20025;-81
2021/05/06 09:59:30;;;;;;;7.25;1.40;;;;;;;;;;5028874;28;20818;-81
2021/05/06 10:02:08;;;;;;;7.20;1.38;;;;;;;;;;5025292;28;20515;-81
2021/05/06 10:04:36;;;;;;;7.78;1.77;;;;;;;;;;5022696;28;20025;-80
2021/05/06 10:07:06;;;;;;;4.63;1.30;;;;;;;;;;5027968;28;20546;-81
2021/05/06 10:09:32;;;;;;;6.70;1.13;;;;;;;;;;5024848;28;20043;-80
2021/05/06 10:11:59;;;;;;;9.23;1.20;;;;;;;;;;5022728;28;20049;-80
2021/05/06 10:14:25;;;;;;;5.40;1.20;;;;;;;;;;5025799;28;20025;-80
2021/05/06 10:16:52;;;;;;;6.45;1.30;;;;;;;;;;5019449;28;20017;-80
2021/05/06 10:19:19;;;;;;;5.63;1.27;;;;;;;;;;5021668;28;20044;-80
2021/05/06 10:21:45;;;;;;;8.10;1.52;;;;;;;;;;5012269;28;20037;-80
2021/05/06 10:24:12;;;;;;;8.43;1.50;;;;;;;;;;5015771;28;20594;-80
2021/05/06 10:26:39;;;;;;;10.55;1.90;;;;;;;;;;5018240;28;20032;-81
2021/05/06 10:29:05;;;;;;;6.95;1.60;;;;;;;;;;5023487;28;20040;-81
2021/05/06 10:31:32;;;;;;;8.02;1.40;;;;;;;;;;5022813;28;20030;-80
2021/05/06 10:33:58;;;;;;;6.47;1.40;;;;;;;;;;5018109;28;20031;-81
2021/05/06 10:36:24;;;;;;;6.35;1.40;;;;;;;;;;5025636;28;20029;-80
2021/05/06 10:38:51;;;;;;;8.02;1.52;;;;;;;;;;5016083;28;20051;-80
2021/05/06 10:41:26;;;;;;;4.53;1.23;;;;;;;;;;5018239;28;20030;-80
2021/05/06 10:43:59;;;;;;;9.55;1.70;;;;;;;;;;5021768;28;20024;-81
2021/05/06 10:46:44;;;;;;;6.80;1.50;;;;;;;;;;5022770;28;20029;-80
2021/05/06 10:49:11;;;;;;;6.85;1.40;;;;;;;;;;5020204;28;20124;-81
2021/05/06 10:51:37;;;;;;;4.05;1.20;;;;;;;;;;5012500;28;20021;-79
2021/05/06 10:54:22;;;;;;;5.55;1.27;;;;;;;;;;5016415;28;20149;-79
2021/05/06 10:56:48;;;;;;;9.18;1.35;;;;;;;;;;5013867;28;20071;-79
2021/05/06 10:59:24;;;;;;;5.47;1.33;;;;;;;;;;5017198;28;20032;-80
2021/05/06 11:01:51;;;;;;;6.53;1.25;;;;;;;;;;5023784;28;20103;-80
2021/05/06 11:04:17;;;;;;;4.72;1.40;;;;;;;;;;5019734;28;20032;-80
2021/05/06 11:06:44;;;;;;;4.70;1.42;;;;;;;;;;5018730;28;20025;-80
2021/05/06 11:09:33;;;;;;;4.75;1.00;;;;;;;;;;5024844;28;20033;-80
2021/05/06 11:12:18;;;;;;;8.98;1.80;;;;;;;;;;5016273;28;20052;-79
2021/05/06 11:15:00;;;;;;;5.78;1.20;;;;;;;;;;5023056;28;20028;-83
2021/05/06 11:17:41;;;;;;;6.25;1.60;;;;;;;;;;5032923;28;20024;-80
2021/05/06 11:20:11;;;;;;;5.30;1.10;;;;;;;;;;5026589;28;20020;-82
2021/05/06 11:22:43;;;;;;;5.38;1.40;;;;;;;;;;5024046;28;20106;-83
2021/05/06 11:27:58;;;;;;;7.63;1.38;;;;;;;;;;5016265;28;20725;-80
2021/05/06 11:30:35;;;;;;;5.65;1.20;;;;;;;;;;5019593;28;20051;-80
2021/05/06 11:33:24;;;;;;;8.88;1.55;;;;;;;;;;5022261;28;20032;-81
2021/05/06 11:35:57;;;;;;;7.43;1.60;;;;;;;;;;5017642;28;20037;-81
2021/05/06 11:38:23;;;;;;;5.55;1.40;;;;;;;;;;5023864;28;20022;-81
2021/05/06 11:40:58;;;;;;;7.80;1.55;;;;;;;;;;5022880;28;20017;-81
2021/05/06 11:43:24;;;;;;;4.13;1.00;;;;;;;;;;5021496;28;20029;-80
2021/05/06 11:46:02;;;;;;;5.90;1.10;;;;;;;;;;5017059;28;20025;-80
2021/05/06 11:48:35;;;;;;;5.40;1.33;;;;;;;;;;5020794;28;20055;-80
2021/05/06 11:51:01;;;;;;;6.63;1.20;;;;;;;;;;5012456;28;20028;-80
2021/05/06 11:53:27;;;;;;;7.13;1.00;;;;;;;;;;5023119;28;20541;-80
2021/05/06 11:55:54;;;;;;;6.90;1.00;;;;;;;;;;5013531;28;20769;-79
2021/05/06 11:58:28;;;;;;;6.38;1.00;;;;;;;;;;5023041;28;20414;-80
2021/05/06 12:00:55;;;;;;;4.35;1.00;;;;;;;;;;5012714;28;21976;-80
2021/05/06 12:03:21;;;;;;;6.53;1.60;;;;;;;;;;5023756;28;20060;-80
2021/05/06 12:05:48;;;;;;;5.57;1.08;;;;;;;;;;5013505;28;20689;-80
2021/05/06 12:08:16;;;;;;;5.55;1.13;;;;;;;;;;5018023;28;20109;-80
2021/05/06 12:10:42;;;;;;;8.07;1.08;;;;;;;;;;5016215;28;20032;-81
2021/05/06 12:13:11;;;;;;;6.65;1.40;;;;;;;;;;5013310;28;20057;-80
2021/05/06 12:15:37;;;;;;;6.88;1.30;;;;;;;;;;5014609;28;20023;-80
2021/05/06 12:18:14;;;;;;;7.25;1.25;;;;;;;;;;5015623;28;20037;-80
2021/05/06 12:20:57;;;;;;;7.55;1.27;;;;;;;;;;5016824;28;20072;-80
2021/05/06 12:23:24;;;;;;;6.10;1.23;;;;;;;;;;5019813;28;20025;-82
2021/05/06 12:25:51;;;;;;;5.78;1.00;;;;;;;;;;5014068;28;20039;-80
2021/05/06 12:28:17;;;;;;;5.45;1.00;;;;;;;;;;5017910;28;20033;-80
2021/05/06 12:30:44;;;;;;;6.38;1.10;;;;;;;;;;5015048;28;20040;-79
2021/05/06 12:33:10;;;;;;;4.97;0.90;;;;;;;;;;5013976;28;20099;-78
2021/05/06 12:35:52;;;;;;;2.47;0.70;;;;;;;;;;5017375;28;20042;-83
2021/05/06 12:38:19;;;;;;;4.65;0.80;;;;;;;;;;5016174;28;20064;-82
2021/05/06 12:40:45;;;;;;;6.47;1.30;;;;;;;;;;5016568;28;20466;-82
2021/05/06 12:43:29;;;;;;;8.30;1.35;;;;;;;;;;5018915;28;20120;-82
2021/05/06 12:46:03;;;;;;;4.55;0.98;;;;;;;;;;5014656;28;20640;-82
2021/05/06 12:48:36;;;;;;;4.97;1.10;;;;;;;;;;5021214;28;20035;-82
2021/05/06 12:51:03;;;;;;;6.45;1.10;;;;;;;;;;5022102;28;20539;-82
2021/05/06 12:53:29;;;;;;;4.78;1.27;;;;;;;;;;5020312;28;20060;-82
2021/05/06 12:55:56;;;;;;;5.57;0.90;;;;;;;;;;5018371;28;20612;-81
2021/05/06 12:58:27;;;;;;;5.20;1.10;;;;;;;;;;5017337;28;20029;-81
2021/05/06 13:00:56;;;;;;;5.35;0.90;;;;;;;;;;5019225;28;20824;-82
2021/05/06 13:03:28;;;;;;;5.63;0.85;;;;;;;;;;5024472;28;20032;-82
2021/05/06 13:06:03;;;;;;;6.35;1.20;;;;;;;;;;5013600;28;20041;-81
2021/05/06 13:08:36;;;;;;;5.20;1.00;;;;;;;;;;5020547;28;20065;-83
2021/05/06 13:11:06;;;;;;;4.75;0.93;;;;;;;;;;5022649;28;20032;-82
2021/05/06 13:13:36;;;;;;;4.90;1.13;;;;;;;;;;5022239;28;20057;-82
2021/05/06 13:16:03;;;;;;;4.20;0.90;;;;;;;;;;5025644;28;20691;-82
2021/05/06 13:18:29;;;;;;;4.57;0.80;;;;;;;;;;5024103;28;20032;-83
2021/05/06 13:20:59;;;;;;;5.28;1.10;;;;;;;;;;5024278;28;20131;-83
2021/05/06 13:23:33;;;;;;;4.82;1.15;;;;;;;;;;5023413;28;20041;-82
2021/05/06 13:26:01;;;;;;;5.32;1.08;;;;;;;;;;5020921;28;20427;-82
2021/05/06 13:28:31;;;;;;;5.18;1.17;;;;;;;;;;5027212;28;20053;-82
2021/05/06 13:31:08;;;;;;;5.18;1.13;;;;;;;;;;5023841;28;20097;-80
2021/05/06 13:33:34;;;;;;;4.90;1.05;;;;;;;;;;5030823;28;20097;-81
2021/05/06 13:36:04;;;;;;;3.90;1.00;;;;;;;;;;5031541;28;20064;-83
2021/05/06 13:38:46;;;;;;;7.35;1.40;;;;;;;;;;5032158;28;20029;-81
2021/05/06 13:41:13;;;;;;;6.35;1.35;;;;;;;;;;5023212;28;20025;-82
2021/05/06 13:43:40;;;;;;;4.47;1.10;;;;;;;;;;5025699;28;20021;-83
2021/05/06 13:46:09;;;;;;;7.97;1.27;;;;;;;;;;5031636;28;20037;-82
2021/05/06 13:48:36;;;;;;;5.00;0.88;;;;;;;;;;5026884;28;20056;-82
2021/05/06 13:51:02;;;;;;;4.82;0.80;;;;;;;;;;5030216;28;20032;-83
2021/05/06 13:53:28;;;;;;;6.47;1.10;;;;;;;;;;5023226;28;20037;-83
2021/05/06 13:55:54;;;;;;;6.53;0.90;;;;;;;;;;5022893;28;20898;-83
2021/05/06 13:58:20;;;;;;;5.97;1.13;;;;;;;;;;5028485;28;20025;-82
2021/05/06 14:00:47;;;;;;;4.68;0.95;;;;;;;;;;5022751;28;20108;-82
2021/05/06 14:03:13;;;;;;;5.82;1.30;;;;;;;;;;5025879;28;20039;-82
2021/05/06 14:05:39;;;;;;;5.55;0.85;;;;;;;;;;5020291;28;20105;-82
2021/05/06 14:08:06;;;;;;;4.13;0.90;;;;;;;;;;5029820;28;20032;-81
2021/05/06 14:10:32;;;;;;;4.82;0.77;;;;;;;;;;5032440;28;20088;-82
2021/05/06 14:12:59;;;;;;;5.78;1.00;;;;;;;;;;5028644;28;20048;-82
2021/05/06 14:15:25;;;;;;;6.72;1.35;;;;;;;;;;5026268;28;20053;-83
2021/05/06 14:17:51;;;;;;;5.18;0.90;;;;;;;;;;5025530;28;20025;-81
2021/05/06 14:20:18;;;;;;;4.35;1.10;;;;;;;;;;5029307;28;20032;-83
2021/05/06 14:22:44;;;;;;;6.07;1.00;;;;;;;;;;5019303;28;20116;-83
2021/05/06 14:25:11;;;;;;;8.00;0.90;;;;;;;;;;5019516;28;20469;-83
2021/05/06 14:27:37;;;;;;;4.97;0.93;;;;;;;;;;5026939;28;20452;-82
2021/05/06 14:30:04;;;;;;;6.38;1.00;;;;;;;;;;5034576;28;20029;-81
2021/05/06 14:32:30;;;;;;;6.15;1.13;;;;;;;;;;5025890;28;20066;-81
2021/05/06 14:34:57;;;;;;;9.15;1.15;;;;;;;;;;5017303;28;20607;-83
2021/05/06 14:37:23;;;;;;;3.90;0.70;;;;;;;;;;5024250;28;20040;-80
2021/05/06 14:39:51;;;;;;;4.32;0.70;;;;;;;;;;5022202;28;20029;-82
2021/05/06 14:42:17;;;;;;;4.40;0.90;;;;;;;;;;5022806;28;20122;-82
2021/05/06 14:44:44;;;;;;;3.67;0.77;;;;;;;;;;5022746;28;20693;-82
2021/05/06 14:47:10;;;;;;;7.22;1.10;;;;;;;;;;5024216;28;20171;-82
2021/05/06 14:49:36;;;;;;;4.32;1.10;;;;;;;;;;5018399;28;20089;-82
2021/05/06 14:52:03;;;;;;;8.98;1.20;;;;;;;;;;5020923;28;20356;-82
2021/05/06 14:54:29;;;;;;;6.47;1.10;;;;;;;;;;5024077;28;20025;-82
2021/05/06 14:56:55;;;;;;;5.30;1.08;;;;;;;;;;5017184;28;20893;-82
2021/05/06 14:59:21;;;;;;;6.00;0.93;;;;;;;;;;5015616;28;20751;-82
2021/05/06 15:01:47;;;;;;;6.85;1.13;;;;;;;;;;5020366;28;20766;-82
2021/05/06 15:04:14;;;;;;;3.92;0.75;;;;;;;;;;5025128;28;20510;-83
2021/05/06 15:06:40;;;;;;;4.43;0.90;;;;;;;;;;5012877;28;20091;-83
2021/05/06 15:09:06;;;;;;;6.85;1.17;;;;;;;;;;5018375;28;20049;-83
2021/05/06 15:11:34;;;;;;;5.88;0.90;;;;;;;;;;5016211;28;20735;-83
2021/05/06 15:14:00;;;;;;;5.80;1.00;;;;;;;;;;5014833;28;20032;-83
2021/05/06 15:16:26;;;;;;;6.20;1.30;;;;;;;;;;5016052;28;20022;-83
2021/05/06 15:18:52;;;;;;;4.57;1.20;;;;;;;;;;5014984;28;20025;-82
2021/05/06 15:21:19;;;;;;;5.95;1.10;;;;;;;;;;5021999;28;20037;-83
2021/05/06 15:23:45;;;;;;;6.32;1.10;;;;;;;;;;5015868;28;20630;-83
2021/05/06 15:26:11;;;;;;;4.25;1.10;;;;;;;;;;5020013;28;20040;-83
2021/05/06 15:28:38;;;;;;;5.07;1.08;;;;;;;;;;5021295;28;20763;-83
2021/05/06 15:31:06;;;;;;;6.60;0.90;;;;;;;;;;5021567;28;20037;-83
2021/05/06 15:33:32;;;;;;;4.72;0.80;;;;;;;;;;5034335;28;20030;-84
2021/05/06 15:35:58;;;;;;;6.32;0.88;;;;;;;;;;5020570;28;20572;-83
2021/05/06 15:38:25;;;;;;;6.60;0.90;;;;;;;;;;5024730;28;20024;-83
2021/05/06 15:40:52;;;;;;;4.82;1.00;;;;;;;;;;5021635;28;20024;-84
2021/05/06 15:43:19;;;;;;;6.28;1.00;;;;;;;;;;5023758;28;20033;-82
2021/05/06 15:45:45;;;;;;;4.93;0.90;;;;;;;;;;5022480;28;20048;-83
2021/05/06 15:48:12;;;;;;;6.72;0.90;;;;;;;;;;5018295;28;20107;-83
2021/05/06 15:50:39;;;;;;;5.50;0.95;;;;;;;;;;5017445;28;20079;-83
2021/05/06 15:53:05;;;;;;;6.25;0.98;;;;;;;;;;5014571;28;20033;-81
2021/05/06 15:55:33;;;;;;;6.45;0.80;;;;;;;;;;5019717;28;20029;-82
2021/05/06 15:58:01;;;;;;;3.10;0.63;;;;;;;;;;5027625;28;20359;-83
2021/05/06 16:00:27;;;;;;;6.22;0.93;;;;;;;;;;5016909;28;20064;-81
2021/05/06 16:02:59;;;;;;;4.85;0.88;;;;;;;;;;5019487;28;20029;-82
2021/05/06 16:05:27;;;;;;;5.82;1.10;;;;;;;;;;5025793;28;20028;-83
2021/05/06 16:07:53;;;;;;;5.40;0.95;;;;;;;;;;5019856;28;20287;-83
2021/05/06 16:10:21;;;;;;;4.50;0.80;;;;;;;;;;5018927;28;20538;-83
2021/05/06 16:12:47;;;;;;;8.02;1.08;;;;;;;;;;5026969;28;20041;-84
2021/05/06 16:15:13;;;;;;;6.03;0.93;;;;;;;;;;5033687;28;20040;-83
2021/05/06 16:17:40;;;;;;;7.38;1.20;;;;;;;;;;5024912;28;20032;-84
2021/05/06 16:20:21;;;;;;;6.13;1.05;;;;;;;;;;5024223;28;20036;-84
2021/05/06 16:22:49;;;;;;;5.20;0.90;;;;;;;;;;5018559;28;20033;-83
2021/05/06 16:25:17;;;;;;;5.55;1.30;;;;;;;;;;5030349;28;20577;-83
2021/05/06 16:27:45;;;;;;;4.40;0.80;;;;;;;;;;5018179;28;20143;-82
2021/05/06 16:30:11;;;;;;;6.43;0.95;;;;;;;;;;5026924;28;20464;-84
2021/05/06 16:32:39;;;;;;;6.65;0.95;;;;;;;;;;5017313;28;20029;-84
2021/05/06 16:35:09;;;;;;;9.43;1.42;;;;;;;;;;5028136;28;20064;-83
2021/05/06 16:37:48;;;;;;;4.35;1.00;;;;;;;;;;5026731;28;20025;-85
2021/05/06 16:40:25;;;;;;;7.00;1.00;;;;;;;;;;5024361;28;20605;-82
2021/05/06 16:45:18;;;;;;;5.93;1.27;;;;;;;;;;5029619;28;20151;-83
2021/05/06 16:47:44;;;;;;;6.28;1.00;;;;;;;;;;5021970;28;20029;-83
2021/05/06 16:50:11;;;;;;;7.28;1.08;;;;;;;;;;5031283;28;20441;-83
2021/05/06 16:52:37;;;;;;;7.75;1.17;;;;;;;;;;5021631;28;20036;-83
2021/05/06 16:55:05;;;;;;;4.82;1.00;;;;;;;;;;5030488;28;20067;-84
2021/05/06 16:57:31;;;;;;;6.05;1.05;;;;;;;;;;5031308;28;20147;-85
2021/05/06 16:59:57;;;;;;;6.20;1.10;;;;;;;;;;5026165;28;20120;-86
2021/05/06 17:02:24;;;;;;;9.23;1.23;;;;;;;;;;5039974;28;20025;-84
2021/05/06 17:04:51;;;;;;;7.75;1.60;;;;;;;;;;5032454;28;20044;-83
2021/05/06 17:07:19;;;;;;;7.25;1.30;;;;;;;;;;5027174;28;20081;-84
2021/05/06 17:09:48;;;;;;;6.35;1.27;;;;;;;;;;5023676;28;20473;-83
2021/05/06 17:12:15;;;;;;;6.90;1.38;;;;;;;;;;5025616;28;20098;-82
2021/05/06 17:14:42;;;;;;;6.35;1.20;;;;;;;;;;5028818;28;20029;-83
2021/05/06 17:17:31;;;;;;;8.82;1.50;;;;;;;;;;5039238;28;20043;-84
2021/05/06 17:20:00;;;;;;;9.05;1.42;;;;;;;;;;5001939;28;20065;-84
2021/05/06 17:22:29;;;;;;;10.73;1.60;;;;;;;;;;4996798;28;20037;-87
2021/05/06 17:24:57;;;;;;;8.25;1.40;;;;;;;;;;5006834;28;20041;-86
2021/05/06 17:27:27;;;;;;;8.15;1.50;;;;;;;;;;4996158;28;20026;-86
2021/05/06 17:29:55;;;;;;;9.15;1.70;;;;;;;;;;4996856;28;20030;-86
2021/05/06 17:32:24;;;;;;;8.88;1.83;;;;;;;;;;4997628;28;20040;-86
2021/05/06 17:34:53;;;;;;;6.90;1.50;;;;;;;;;;4990606;28;20061;-86
2021/05/06 17:37:21;;;;;;;9.30;1.58;;;;;;;;;;5007445;28;20844;-84
2021/05/06 17:39:48;;;;;;;8.48;1.67;;;;;;;;;;4993909;28;20486;-86
2021/05/06 17:42:15;;;;;;;7.50;1.60;;;;;;;;;;5011474;28;20459;-85
2021/05/06 17:44:42;;;;;;;6.13;1.60;;;;;;;;;;5007488;28;20030;-86
2021/05/06 17:47:10;;;;;;;9.93;1.70;;;;;;;;;;4994398;28;20592;-87
2021/05/06 17:49:37;;;;;;;7.25;1.70;;;;;;;;;;5008556;28;20041;-85
2021/05/06 17:52:06;;;;;;;7.55;1.60;;;;;;;;;;5013957;28;20864;-87
2021/05/06 17:54:43;;;;;;;8.25;1.42;;;;;;;;;;5030134;28;20040;-86
2021/05/06 17:57:10;;;;;;;;;;;;;;;;;;4978007;28;20045;-85
2021/05/06 17:59:40;;;;;;;7.53;1.40;;;;;;;;;;5009652;28;19935;-86
2021/05/06 18:02:09;;;;;;;7.93;1.60;;;;;;;;;;5013919;28;20022;-86
2021/05/06 18:04:37;;;;;;;13.15;1.77;;;;;;;;;;5020031;28;20089;-85
2021/05/06 18:07:06;;;;;;;5.95;1.30;;;;;;;;;;5010316;28;20048;-85
2021/05/06 18:09:38;;;;;;;8.00;1.30;;;;;;;;;;5017317;28;20096;-87
2021/05/06 18:12:08;;;;;;;7.40;1.35;;;;;;;;;;5012371;28;20056;-86
2021/05/06 18:14:36;;;;;;;8.63;1.50;;;;;;;;;;5015672;28;20929;-87
2021/05/06 18:17:04;;;;;;;8.07;1.42;;;;;;;;;;5018867;28;20018;-86
2021/05/06 18:19:33;;;;;;;10.27;1.50;;;;;;;;;;5018553;28;20092;-87
2021/05/06 18:22:01;;;;;;;8.68;1.52;;;;;;;;;;5013192;28;20140;-87
2021/05/06 18:24:36;;;;;;;8.40;1.90;;;;;;;;;;5021585;28;20119;-88
2021/05/06 18:27:06;;;;;;;8.48;1.48;;;;;;;;;;5041100;28;20057;-85
2021/05/06 18:29:34;;;;;;;9.02;1.70;;;;;;;;;;5017981;28;20200;-87
2021/05/06 18:32:03;;;;;;;9.23;1.70;;;;;;;;;;5013283;28;20036;-87